sensor_id;sensor_type;location;lat;lon;timestamp;P1;durP1;ratioP1;P2;durP2;ratioP2
7497;SDS011;3790;48.806;9.140;2023-06-26T00:03:55;6.13;;;3.97;;
7497;SDS011;3790;48.806;9.140;2023-06-26T00:08:56;6.68;;;3.70;;
7497;SDS011;3790;48.806;9.140;2023-06-26T00:14:01;6.25;;;4.28;;
7497;SDS011;3790;48.806;9.140;2023-06-26T00:19:02;7.05;;;3.90;;
7497;SDS011;3790;48.806;9.140;2023-06-26T00:24:02;7.85;;;3.70;;
7497;SDS011;3790;48.806;9.140;2023-06-26T00:29:03;7.28;;;4.13;;
7497;SDS011;3790;48.806;9.140;2023-06-26T00:34:03;6.95;;;4.30;;
7497;SDS011;3790;48.806;9.140;2023-06-26T00:39:04;6.53;;;3.67;;
7497;SDS011;3790;48.806;9.140;2023-06-26T00:44:06;5.75;;;3.63;;
7497;SDS011;3790;48.806;9.140;2023-06-26T00:49:06;6.05;;;4.10;;
7497;SDS011;3790;48.806;9.140;2023-06-26T00:54:07;5.90;;;4.05;;
7497;SDS011;3790;48.806;9.140;2023-06-26T00:59:08;5.47;;;3.80;;
7497;SDS011;3790;48.806;9.140;2023-06-26T01:04:08;4.90;;;3.60;;
7497;SDS011;3790;48.806;9.140;2023-06-26T01:09:20;5.65;;;3.83;;
7497;SDS011;3790;48.806;9.140;2023-06-26T01:14:21;6.38;;;3.88;;
7497;SDS011;3790;48.806;9.140;2023-06-26T01:19:26;5.97;;;3.80;;
7497;SDS011;3790;48.806;9.140;2023-06-26T01:24:32;7.10;;;4.22;;
7497;SDS011;3790;48.806;9.140;2023-06-26T01:29:37;6.18;;;3.90;;
7497;SDS011;3790;48.806;9.140;2023-06-26T01:34:38;6.18;;;3.65;;
7497;SDS011;3790;48.806;9.140;2023-06-26T01:39:39;6.20;;;4.22;;
7497;SDS011;3790;48.806;9.140;2023-06-26T01:44:42;7.53;;;3.92;;
7497;SDS011;3790;48.806;9.140;2023-06-26T01:55:20;6.05;;;3.72;;
7497;SDS011;3790;48.806;9.140;2023-06-26T02:00:26;5.10;;;3.03;;
7497;SDS011;3790;48.806;9.140;2023-06-26T02:05:27;5.32;;;3.70;;
7497;SDS011;3790;48.806;9.140;2023-06-26T02:10:30;5.38;;;4.00;;
7497;SDS011;3790;48.806;9.140;2023-06-26T02:15:31;5.38;;;3.25;;
7497;SDS011;3790;48.806;9.140;2023-06-26T02:20:31;5.53;;;3.13;;
7497;SDS011;3790;48.806;9.140;2023-06-26T02:25:33;6.65;;;3.90;;
7497;SDS011;3790;48.806;9.140;2023-06-26T02:30:33;6.63;;;3.92;;
7497;SDS011;3790;48.806;9.140;2023-06-26T02:35:34;5.65;;;3.35;;
7497;SDS011;3790;48.806;9.140;2023-06-26T02:40:35;4.28;;;3.22;;
7497;SDS011;3790;48.806;9.140;2023-06-26T02:45:35;4.03;;;3.33;;
7497;SDS011;3790;48.806;9.140;2023-06-26T02:50:35;6.85;;;4.03;;
7497;SDS011;3790;48.806;9.140;2023-06-26T02:55:36;5.97;;;3.58;;
7497;SDS011;3790;48.806;9.140;2023-06-26T03:00:36;4.22;;;3.03;;
7497;SDS011;3790;48.806;9.140;2023-06-26T03:05:41;5.18;;;3.63;;
7497;SDS011;3790;48.806;9.140;2023-06-26T03:10:41;6.00;;;3.78;;
7497;SDS011;3790;48.806;9.140;2023-06-26T03:15:42;5.63;;;3.45;;
7497;SDS011;3790;48.806;9.140;2023-06-26T03:20:42;5.78;;;3.47;;
7497;SDS011;3790;48.806;9.140;2023-06-26T03:25:43;4.55;;;3.33;;
7497;SDS011;3790;48.806;9.140;2023-06-26T03:30:43;4.45;;;3.53;;
7497;SDS011;3790;48.806;9.140;2023-06-26T03:35:44;6.03;;;3.65;;
7497;SDS011;3790;48.806;9.140;2023-06-26T03:40:44;5.05;;;3.35;;
7497;SDS011;3790;48.806;9.140;2023-06-26T03:45:45;6.55;;;3.95;;
7497;SDS011;3790;48.806;9.140;2023-06-26T03:50:46;5.88;;;3.55;;
7497;SDS011;3790;48.806;9.140;2023-06-26T03:55:46;6.07;;;4.13;;
7497;SDS011;3790;48.806;9.140;2023-06-26T04:00:47;6.25;;;3.53;;
7497;SDS011;3790;48.806;9.140;2023-06-26T04:05:48;4.00;;;3.05;;
7497;SDS011;3790;48.806;9.140;2023-06-26T04:10:48;4.95;;;2.97;;
7497;SDS011;3790;48.806;9.140;2023-06-26T04:15:51;7.68;;;4.28;;
7497;SDS011;3790;48.806;9.140;2023-06-26T04:21:05;4.85;;;3.63;;
7497;SDS011;3790;48.806;9.140;2023-06-26T04:26:11;6.45;;;4.10;;
7497;SDS011;3790;48.806;9.140;2023-06-26T04:31:14;5.30;;;3.75;;
7497;SDS011;3790;48.806;9.140;2023-06-26T04:36:15;5.43;;;3.92;;
7497;SDS011;3790;48.806;9.140;2023-06-26T04:41:16;5.00;;;3.50;;
7497;SDS011;3790;48.806;9.140;2023-06-26T04:46:16;5.28;;;3.97;;
7497;SDS011;3790;48.806;9.140;2023-06-26T04:51:17;5.93;;;3.72;;
7497;SDS011;3790;48.806;9.140;2023-06-26T04:56:20;5.25;;;4.18;;
7497;SDS011;3790;48.806;9.140;2023-06-26T05:01:21;5.70;;;4.13;;
7497;SDS011;3790;48.806;9.140;2023-06-26T05:06:22;6.88;;;4.47;;
7497;SDS011;3790;48.806;9.140;2023-06-26T05:11:24;5.82;;;4.30;;
7497;SDS011;3790;48.806;9.140;2023-06-26T05:16:25;5.10;;;4.60;;
7497;SDS011;3790;48.806;9.140;2023-06-26T05:21:25;6.32;;;4.57;;
7497;SDS011;3790;48.806;9.140;2023-06-26T05:26:26;5.93;;;4.50;;
7497;SDS011;3790;48.806;9.140;2023-06-26T05:31:27;7.07;;;4.28;;
7497;SDS011;3790;48.806;9.140;2023-06-26T05:36:27;7.25;;;4.82;;
7497;SDS011;3790;48.806;9.140;2023-06-26T05:41:29;7.38;;;4.38;;
7497;SDS011;3790;48.806;9.140;2023-06-26T05:46:29;10.35;;;5.30;;
7497;SDS011;3790;48.806;9.140;2023-06-26T05:51:30;8.10;;;4.72;;
7497;SDS011;3790;48.806;9.140;2023-06-26T05:56:31;6.18;;;4.40;;
7497;SDS011;3790;48.806;9.140;2023-06-26T06:01:33;6.03;;;4.72;;
7497;SDS011;3790;48.806;9.140;2023-06-26T06:06:34;9.25;;;5.03;;
7497;SDS011;3790;48.806;9.140;2023-06-26T06:11:34;6.63;;;4.95;;
7497;SDS011;3790;48.806;9.140;2023-06-26T06:16:35;10.95;;;8.48;;
7497;SDS011;3790;48.806;9.140;2023-06-26T06:21:35;7.05;;;5.18;;
7497;SDS011;3790;48.806;9.140;2023-06-26T06:26:36;6.78;;;4.47;;
7497;SDS011;3790;48.806;9.140;2023-06-26T06:31:36;6.43;;;4.50;;
7497;SDS011;3790;48.806;9.140;2023-06-26T06:36:37;6.05;;;4.35;;
7497;SDS011;3790;48.806;9.140;2023-06-26T06:41:38;6.50;;;4.30;;
7497;SDS011;3790;48.806;9.140;2023-06-26T06:46:38;12.77;;;4.53;;
7497;SDS011;3790;48.806;9.140;2023-06-26T06:51:39;9.38;;;4.40;;
7497;SDS011;3790;48.806;9.140;2023-06-26T06:56:39;9.07;;;4.72;;
7497;SDS011;3790;48.806;9.140;2023-06-26T07:01:40;6.20;;;3.97;;
7497;SDS011;3790;48.806;9.140;2023-06-26T07:06:40;9.38;;;4.05;;
7497;SDS011;3790;48.806;9.140;2023-06-26T07:11:41;9.30;;;4.80;;
7497;SDS011;3790;48.806;9.140;2023-06-26T07:16:41;10.55;;;4.30;;
7497;SDS011;3790;48.806;9.140;2023-06-26T07:21:42;6.57;;;3.72;;
7497;SDS011;3790;48.806;9.140;2023-06-26T07:26:44;7.97;;;3.83;;
7497;SDS011;3790;48.806;9.140;2023-06-26T07:31:45;5.90;;;4.10;;
7497;SDS011;3790;48.806;9.140;2023-06-26T07:36:48;6.50;;;4.20;;
7497;SDS011;3790;48.806;9.140;2023-06-26T07:41:48;7.22;;;3.90;;
7497;SDS011;3790;48.806;9.140;2023-06-26T07:46:49;5.75;;;3.78;;
7497;SDS011;3790;48.806;9.140;2023-06-26T07:51:49;6.07;;;3.40;;
7497;SDS011;3790;48.806;9.140;2023-06-26T08:01:55;5.05;;;3.05;;
7497;SDS011;3790;48.806;9.140;2023-06-26T08:06:56;4.32;;;3.17;;
7497;SDS011;3790;48.806;9.140;2023-06-26T08:11:58;11.77;;;3.40;;
7497;SDS011;3790;48.806;9.140;2023-06-26T08:16:59;5.95;;;2.97;;
7497;SDS011;3790;48.806;9.140;2023-06-26T08:21:59;9.60;;;3.20;;
7497;SDS011;3790;48.806;9.140;2023-06-26T08:27:00;4.97;;;3.10;;
7497;SDS011;3790;48.806;9.140;2023-06-26T08:32:00;5.32;;;3.30;;
7497;SDS011;3790;48.806;9.140;2023-06-26T08:37:02;4.72;;;3.05;;
7497;SDS011;3790;48.806;9.140;2023-06-26T08:42:02;4.20;;;2.70;;
7497;SDS011;3790;48.806;9.140;2023-06-26T08:47:03;4.45;;;2.88;;
7497;SDS011;3790;48.806;9.140;2023-06-26T08:52:07;5.85;;;3.17;;
7497;SDS011;3790;48.806;9.140;2023-06-26T08:57:15;3.72;;;2.88;;
7497;SDS011;3790;48.806;9.140;2023-06-26T09:02:18;4.57;;;2.70;;
7497;SDS011;3790;48.806;9.140;2023-06-26T09:07:21;5.25;;;3.10;;
7497;SDS011;3790;48.806;9.140;2023-06-26T09:12:21;4.53;;;2.88;;
7497;SDS011;3790;48.806;9.140;2023-06-26T09:17:25;4.05;;;2.75;;
7497;SDS011;3790;48.806;9.140;2023-06-26T09:22:33;3.85;;;2.85;;
7497;SDS011;3790;48.806;9.140;2023-06-26T09:27:36;5.20;;;2.95;;
7497;SDS011;3790;48.806;9.140;2023-06-26T09:32:36;8.32;;;3.35;;
7497;SDS011;3790;48.806;9.140;2023-06-26T09:37:37;4.90;;;3.00;;
7497;SDS011;3790;48.806;9.140;2023-06-26T09:42:38;3.80;;;2.83;;
7497;SDS011;3790;48.806;9.140;2023-06-26T09:47:38;5.82;;;3.10;;
7497;SDS011;3790;48.806;9.140;2023-06-26T09:52:44;6.63;;;3.17;;
7497;SDS011;3790;48.806;9.140;2023-06-26T09:57:44;4.32;;;3.35;;
7497;SDS011;3790;48.806;9.140;2023-06-26T10:02:47;4.10;;;3.13;;
7497;SDS011;3790;48.806;9.140;2023-06-26T10:07:47;6.90;;;3.22;;
7497;SDS011;3790;48.806;9.140;2023-06-26T10:12:49;5.07;;;3.22;;
7497;SDS011;3790;48.806;9.140;2023-06-26T10:17:55;5.43;;;3.83;;
7497;SDS011;3790;48.806;9.140;2023-06-26T10:22:57;8.00;;;3.10;;
7497;SDS011;3790;48.806;9.140;2023-06-26T10:28:01;5.65;;;3.17;;
7497;SDS011;3790;48.806;9.140;2023-06-26T10:33:03;8.85;;;3.53;;
7497;SDS011;3790;48.806;9.140;2023-06-26T10:38:04;5.78;;;3.60;;
7497;SDS011;3790;48.806;9.140;2023-06-26T10:43:06;5.13;;;3.15;;
7497;SDS011;3790;48.806;9.140;2023-06-26T10:48:08;6.57;;;3.80;;
7497;SDS011;3790;48.806;9.140;2023-06-26T11:03:32;5.30;;;3.60;;
7497;SDS011;3790;48.806;9.140;2023-06-26T11:08:46;4.93;;;3.75;;
7497;SDS011;3790;48.806;9.140;2023-06-26T11:13:56;6.43;;;3.53;;
7497;SDS011;3790;48.806;9.140;2023-06-26T11:18:58;7.32;;;3.78;;
7497;SDS011;3790;48.806;9.140;2023-06-26T11:23:58;6.28;;;4.32;;
7497;SDS011;3790;48.806;9.140;2023-06-26T11:29:02;9.23;;;3.72;;
7497;SDS011;3790;48.806;9.140;2023-06-26T11:34:03;5.43;;;3.65;;
7497;SDS011;3790;48.806;9.140;2023-06-26T11:39:05;5.53;;;3.50;;
7497;SDS011;3790;48.806;9.140;2023-06-26T11:44:07;9.90;;;4.03;;
7497;SDS011;3790;48.806;9.140;2023-06-26T11:49:09;6.70;;;3.33;;
7497;SDS011;3790;48.806;9.140;2023-06-26T11:54:10;5.70;;;3.60;;
7497;SDS011;3790;48.806;9.140;2023-06-26T11:59:11;6.28;;;3.90;;
7497;SDS011;3790;48.806;9.140;2023-06-26T12:04:14;7.70;;;3.40;;
7497;SDS011;3790;48.806;9.140;2023-06-26T12:09:17;5.22;;;3.63;;
7497;SDS011;3790;48.806;9.140;2023-06-26T12:14:22;5.15;;;3.72;;
7497;SDS011;3790;48.806;9.140;2023-06-26T12:19:25;6.38;;;3.38;;
7497;SDS011;3790;48.806;9.140;2023-06-26T12:24:28;9.20;;;3.78;;
7497;SDS011;3790;48.806;9.140;2023-06-26T12:29:31;7.00;;;3.97;;
7497;SDS011;3790;48.806;9.140;2023-06-26T12:34:33;6.18;;;3.88;;
7497;SDS011;3790;48.806;9.140;2023-06-26T12:39:50;6.38;;;3.95;;
7497;SDS011;3790;48.806;9.140;2023-06-26T12:44:53;6.95;;;3.70;;
7497;SDS011;3790;48.806;9.140;2023-06-26T12:49:56;6.30;;;4.07;;
7497;SDS011;3790;48.806;9.140;2023-06-26T12:54:57;6.47;;;3.65;;
7497;SDS011;3790;48.806;9.140;2023-06-26T12:59:58;5.93;;;3.42;;
7497;SDS011;3790;48.806;9.140;2023-06-26T13:04:59;7.63;;;3.72;;
7497;SDS011;3790;48.806;9.140;2023-06-26T13:10:00;5.32;;;3.40;;
7497;SDS011;3790;48.806;9.140;2023-06-26T13:15:00;6.75;;;4.07;;
7497;SDS011;3790;48.806;9.140;2023-06-26T13:20:01;8.90;;;3.08;;
7497;SDS011;3790;48.806;9.140;2023-06-26T13:25:01;8.57;;;3.25;;
7497;SDS011;3790;48.806;9.140;2023-06-26T13:30:02;5.03;;;3.40;;
7497;SDS011;3790;48.806;9.140;2023-06-26T13:35:03;10.77;;;3.40;;
7497;SDS011;3790;48.806;9.140;2023-06-26T13:40:04;6.20;;;3.08;;
7497;SDS011;3790;48.806;9.140;2023-06-26T13:45:07;5.00;;;3.08;;
7497;SDS011;3790;48.806;9.140;2023-06-26T13:50:08;6.90;;;2.85;;
7497;SDS011;3790;48.806;9.140;2023-06-26T13:55:10;6.40;;;3.05;;
7497;SDS011;3790;48.806;9.140;2023-06-26T14:00:10;3.90;;;2.65;;
7497;SDS011;3790;48.806;9.140;2023-06-26T14:05:12;6.28;;;2.83;;
7497;SDS011;3790;48.806;9.140;2023-06-26T14:10:13;5.43;;;2.63;;
7497;SDS011;3790;48.806;9.140;2023-06-26T14:15:13;4.57;;;2.30;;
7497;SDS011;3790;48.806;9.140;2023-06-26T14:20:14;2.10;;;1.60;;
7497;SDS011;3790;48.806;9.140;2023-06-26T14:25:15;4.97;;;2.33;;
7497;SDS011;3790;48.806;9.140;2023-06-26T14:30:16;3.45;;;2.05;;
7497;SDS011;3790;48.806;9.140;2023-06-26T14:35:17;4.65;;;2.10;;
7497;SDS011;3790;48.806;9.140;2023-06-26T14:40:19;10.27;;;2.10;;
7497;SDS011;3790;48.806;9.140;2023-06-26T14:45:19;4.82;;;2.22;;
7497;SDS011;3790;48.806;9.140;2023-06-26T14:50:20;4.13;;;2.08;;
7497;SDS011;3790;48.806;9.140;2023-06-26T14:55:20;4.68;;;2.13;;
7497;SDS011;3790;48.806;9.140;2023-06-26T15:00:21;5.95;;;2.20;;
7497;SDS011;3790;48.806;9.140;2023-06-26T15:05:22;11.25;;;2.33;;
7497;SDS011;3790;48.806;9.140;2023-06-26T15:10:22;4.05;;;2.40;;
7497;SDS011;3790;48.806;9.140;2023-06-26T15:15:23;9.23;;;2.58;;
7497;SDS011;3790;48.806;9.140;2023-06-26T15:20:25;4.57;;;2.45;;
7497;SDS011;3790;48.806;9.140;2023-06-26T15:25:25;5.10;;;2.80;;
7497;SDS011;3790;48.806;9.140;2023-06-26T15:30:28;5.35;;;2.67;;
7497;SDS011;3790;48.806;9.140;2023-06-26T15:35:28;6.90;;;3.33;;
7497;SDS011;3790;48.806;9.140;2023-06-26T15:40:29;5.32;;;3.05;;
7497;SDS011;3790;48.806;9.140;2023-06-26T15:45:29;4.90;;;3.08;;
7497;SDS011;3790;48.806;9.140;2023-06-26T15:50:30;7.15;;;3.10;;
7497;SDS011;3790;48.806;9.140;2023-06-26T15:55:30;5.57;;;3.08;;
7497;SDS011;3790;48.806;9.140;2023-06-26T16:00:31;8.15;;;3.50;;
7497;SDS011;3790;48.806;9.140;2023-06-26T16:05:31;5.93;;;3.70;;
7497;SDS011;3790;48.806;9.140;2023-06-26T16:10:32;5.70;;;3.60;;
7497;SDS011;3790;48.806;9.140;2023-06-26T16:15:32;5.40;;;3.20;;
7497;SDS011;3790;48.806;9.140;2023-06-26T16:20:33;9.98;;;3.40;;
7497;SDS011;3790;48.806;9.140;2023-06-26T16:25:33;4.85;;;2.83;;
7497;SDS011;3790;48.806;9.140;2023-06-26T16:30:34;6.28;;;3.75;;
7497;SDS011;3790;48.806;9.140;2023-06-26T16:35:34;4.20;;;2.88;;
7497;SDS011;3790;48.806;9.140;2023-06-26T16:40:35;5.55;;;3.05;;
7497;SDS011;3790;48.806;9.140;2023-06-26T16:45:36;7.90;;;2.60;;
7497;SDS011;3790;48.806;9.140;2023-06-26T16:50:37;3.63;;;2.10;;
7497;SDS011;3790;48.806;9.140;2023-06-26T16:55:37;3.72;;;1.67;;
7497;SDS011;3790;48.806;9.140;2023-06-26T17:00:38;5.88;;;1.70;;
7497;SDS011;3790;48.806;9.140;2023-06-26T17:05:38;3.03;;;1.67;;
7497;SDS011;3790;48.806;9.140;2023-06-26T17:10:39;4.38;;;1.50;;
7497;SDS011;3790;48.806;9.140;2023-06-26T17:15:40;6.15;;;1.40;;
7497;SDS011;3790;48.806;9.140;2023-06-26T17:20:41;5.60;;;1.80;;
7497;SDS011;3790;48.806;9.140;2023-06-26T17:25:42;2.35;;;1.17;;
7497;SDS011;3790;48.806;9.140;2023-06-26T17:30:42;2.38;;;1.13;;
7497;SDS011;3790;48.806;9.140;2023-06-26T17:35:45;3.30;;;1.60;;
7497;SDS011;3790;48.806;9.140;2023-06-26T17:40:45;4.30;;;1.60;;
7497;SDS011;3790;48.806;9.140;2023-06-26T17:45:46;2.75;;;1.42;;
7497;SDS011;3790;48.806;9.140;2023-06-26T17:50:47;4.65;;;1.40;;
7497;SDS011;3790;48.806;9.140;2023-06-26T17:55:49;2.80;;;1.33;;
7497;SDS011;3790;48.806;9.140;2023-06-26T18:00:49;4.30;;;1.23;;
7497;SDS011;3790;48.806;9.140;2023-06-26T18:05:50;3.20;;;1.45;;
7497;SDS011;3790;48.806;9.140;2023-06-26T18:10:50;5.32;;;1.27;;
7497;SDS011;3790;48.806;9.140;2023-06-26T18:15:51;3.00;;;1.38;;
7497;SDS011;3790;48.806;9.140;2023-06-26T18:20:51;4.68;;;1.35;;
7497;SDS011;3790;48.806;9.140;2023-06-26T18:25:52;4.00;;;1.30;;
7497;SDS011;3790;48.806;9.140;2023-06-26T18:30:52;4.80;;;1.23;;
7497;SDS011;3790;48.806;9.140;2023-06-26T18:35:53;3.78;;;1.20;;
7497;SDS011;3790;48.806;9.140;2023-06-26T18:40:54;3.35;;;1.10;;
7497;SDS011;3790;48.806;9.140;2023-06-26T18:45:56;3.20;;;1.23;;
7497;SDS011;3790;48.806;9.140;2023-06-26T18:50:56;2.35;;;1.23;;
7497;SDS011;3790;48.806;9.140;2023-06-26T18:55:57;2.00;;;1.05;;
7497;SDS011;3790;48.806;9.140;2023-06-26T19:00:58;2.53;;;1.30;;
7497;SDS011;3790;48.806;9.140;2023-06-26T19:05:58;3.22;;;1.30;;
7497;SDS011;3790;48.806;9.140;2023-06-26T19:10:59;2.33;;;1.23;;
7497;SDS011;3790;48.806;9.140;2023-06-26T19:16:00;2.97;;;1.50;;
7497;SDS011;3790;48.806;9.140;2023-06-26T19:21:00;3.38;;;1.17;;
7497;SDS011;3790;48.806;9.140;2023-06-26T19:26:01;3.25;;;1.27;;
7497;SDS011;3790;48.806;9.140;2023-06-26T19:31:02;3.65;;;1.17;;
7497;SDS011;3790;48.806;9.140;2023-06-26T19:36:02;3.22;;;1.30;;
7497;SDS011;3790;48.806;9.140;2023-06-26T19:41:03;2.38;;;1.00;;
7497;SDS011;3790;48.806;9.140;2023-06-26T19:46:03;2.67;;;1.15;;
7497;SDS011;3790;48.806;9.140;2023-06-26T19:51:04;3.53;;;1.58;;
7497;SDS011;3790;48.806;9.140;2023-06-26T19:56:05;3.88;;;1.63;;
7497;SDS011;3790;48.806;9.140;2023-06-26T20:01:05;3.75;;;1.40;;
7497;SDS011;3790;48.806;9.140;2023-06-26T20:06:06;3.10;;;1.17;;
7497;SDS011;3790;48.806;9.140;2023-06-26T20:11:07;2.75;;;1.20;;
7497;SDS011;3790;48.806;9.140;2023-06-26T20:16:08;2.45;;;1.23;;
7497;SDS011;3790;48.806;9.140;2023-06-26T20:21:08;3.08;;;1.20;;
7497;SDS011;3790;48.806;9.140;2023-06-26T20:26:09;4.30;;;1.25;;
7497;SDS011;3790;48.806;9.140;2023-06-26T20:31:09;2.30;;;1.00;;
7497;SDS011;3790;48.806;9.140;2023-06-26T20:36:10;3.00;;;1.25;;
7497;SDS011;3790;48.806;9.140;2023-06-26T20:41:11;2.78;;;1.30;;
7497;SDS011;3790;48.806;9.140;2023-06-26T20:46:11;3.38;;;1.38;;
7497;SDS011;3790;48.806;9.140;2023-06-26T20:51:15;3.42;;;0.93;;
7497;SDS011;3790;48.806;9.140;2023-06-26T20:56:24;3.00;;;1.15;;
7497;SDS011;3790;48.806;9.140;2023-06-26T21:01:25;3.63;;;1.40;;
7497;SDS011;3790;48.806;9.140;2023-06-26T21:06:26;4.30;;;1.60;;
7497;SDS011;3790;48.806;9.140;2023-06-26T21:11:27;4.55;;;1.80;;
7497;SDS011;3790;48.806;9.140;2023-06-26T21:16:27;3.28;;;1.17;;
7497;SDS011;3790;48.806;9.140;2023-06-26T21:21:27;2.83;;;1.13;;
7497;SDS011;3790;48.806;9.140;2023-06-26T21:26:28;3.05;;;1.42;;
7497;SDS011;3790;48.806;9.140;2023-06-26T21:31:28;5.60;;;1.65;;
7497;SDS011;3790;48.806;9.140;2023-06-26T21:36:29;2.95;;;1.45;;
7497;SDS011;3790;48.806;9.140;2023-06-26T21:41:30;3.85;;;1.50;;
7497;SDS011;3790;48.806;9.140;2023-06-26T21:46:31;3.38;;;1.48;;
7497;SDS011;3790;48.806;9.140;2023-06-26T21:51:31;4.60;;;1.50;;
7497;SDS011;3790;48.806;9.140;2023-06-26T21:56:32;3.10;;;1.40;;
7497;SDS011;3790;48.806;9.140;2023-06-26T22:01:32;4.60;;;1.83;;
7497;SDS011;3790;48.806;9.140;2023-06-26T22:06:33;2.72;;;1.40;;
7497;SDS011;3790;48.806;9.140;2023-06-26T22:11:33;2.92;;;1.30;;
7497;SDS011;3790;48.806;9.140;2023-06-26T22:16:34;2.95;;;1.08;;
7497;SDS011;3790;48.806;9.140;2023-06-26T22:21:35;3.42;;;1.45;;
7497;SDS011;3790;48.806;9.140;2023-06-26T22:26:35;4.57;;;1.83;;
7497;SDS011;3790;48.806;9.140;2023-06-26T22:31:36;2.95;;;1.40;;
7497;SDS011;3790;48.806;9.140;2023-06-26T22:36:37;2.67;;;1.27;;
7497;SDS011;3790;48.806;9.140;2023-06-26T22:41:37;4.20;;;1.15;;
7497;SDS011;3790;48.806;9.140;2023-06-26T22:46:38;6.38;;;1.58;;
7497;SDS011;3790;48.806;9.140;2023-06-26T22:51:38;3.40;;;1.63;;
7497;SDS011;3790;48.806;9.140;2023-06-26T22:56:39;3.55;;;1.40;;
7497;SDS011;3790;48.806;9.140;2023-06-26T23:01:39;2.90;;;1.20;;
7497;SDS011;3790;48.806;9.140;2023-06-26T23:06:41;2.35;;;1.05;;
7497;SDS011;3790;48.806;9.140;2023-06-26T23:11:45;6.15;;;1.30;;
7497;SDS011;3790;48.806;9.140;2023-06-26T23:16:48;5.82;;;1.50;;
7497;SDS011;3790;48.806;9.140;2023-06-26T23:22:01;2.88;;;1.33;;
7497;SDS011;3790;48.806;9.140;2023-06-26T23:27:02;2.63;;;1.33;;
7497;SDS011;3790;48.806;9.140;2023-06-26T23:32:08;3.42;;;1.48;;
7497;SDS011;3790;48.806;9.140;2023-06-26T23:37:09;4.47;;;1.55;;
7497;SDS011;3790;48.806;9.140;2023-06-26T23:42:13;3.38;;;1.38;;
7497;SDS011;3790;48.806;9.140;2023-06-26T23:47:15;3.63;;;1.23;;
7497;SDS011;3790;48.806;9.140;2023-06-26T23:52:20;4.40;;;1.35;;
7497;SDS011;3790;48.806;9.140;2023-06-26T23:57:21;4.90;;;1.58;;
